sensor_id;sensor_type;location;lat;lon;timestamp;temperature;humidity
12911;DHT22;6523;49.758;6.120;2023-04-05T00:00:20;0.50;99.90
12911;DHT22;6523;49.758;6.120;2023-04-05T00:02:46;0.10;99.90
12911;DHT22;6523;49.758;6.120;2023-04-05T00:05:12;-0.20;99.90
12911;DHT22;6523;49.758;6.120;2023-04-05T00:07:37;-0.10;99.90
12911;DHT22;6523;49.758;6.120;2023-04-05T00:10:04;0.10;99.90
12911;DHT22;6523;49.758;6.120;2023-04-05T00:12:29;0.10;99.90
12911;DHT22;6523;49.758;6.120;2023-04-05T00:14:55;0.20;99.90
12911;DHT22;6523;49.758;6.120;2023-04-05T00:17:20;0.20;99.90
12911;DHT22;6523;49.758;6.120;2023-04-05T00:19:46;0.30;99.90
12911;DHT22;6523;49.758;6.120;2023-04-05T00:22:15;0.20;99.90
12911;DHT22;6523;49.758;6.120;2023-04-05T00:24:49;0.00;99.90
12911;DHT22;6523;49.758;6.120;2023-04-05T00:27:15;-0.20;99.90
12911;DHT22;6523;49.758;6.120;2023-04-05T00:29:40;-0.10;99.90
12911;DHT22;6523;49.758;6.120;2023-04-05T00:32:06;-0.10;99.90
12911;DHT22;6523;49.758;6.120;2023-04-05T00:34:31;-0.10;99.90
12911;DHT22;6523;49.758;6.120;2023-04-05T00:36:58;-0.40;99.90
12911;DHT22;6523;49.758;6.120;2023-04-05T00:39:24;-0.60;99.90
12911;DHT22;6523;49.758;6.120;2023-04-05T00:41:49;-0.40;99.90
12911;DHT22;6523;49.758;6.120;2023-04-05T00:44:15;-0.30;99.90
12911;DHT22;6523;49.758;6.120;2023-04-05T00:46:40;-0.30;99.90
12911;DHT22;6523;49.758;6.120;2023-04-05T00:49:06;-0.30;99.90
12911;DHT22;6523;49.758;6.120;2023-04-05T00:51:32;-0.30;99.90
12911;DHT22;6523;49.758;6.120;2023-04-05T00:53:59;-0.40;99.90
12911;DHT22;6523;49.758;6.120;2023-04-05T00:56:25;-0.60;99.90
12911;DHT22;6523;49.758;6.120;2023-04-05T00:58:50;-0.70;99.90
12911;DHT22;6523;49.758;6.120;2023-04-05T01:01:19;-0.60;99.90
12911;DHT22;6523;49.758;6.120;2023-04-05T01:03:51;-0.70;99.90
12911;DHT22;6523;49.758;6.120;2023-04-05T01:09:08;-0.60;99.90
12911;DHT22;6523;49.758;6.120;2023-04-05T01:11:38;-0.70;99.90
12911;DHT22;6523;49.758;6.120;2023-04-05T01:14:03;-0.80;99.90
12911;DHT22;6523;49.758;6.120;2023-04-05T01:16:29;-1.00;99.90
12911;DHT22;6523;49.758;6.120;2023-04-05T01:18:55;-1.10;99.90
12911;DHT22;6523;49.758;6.120;2023-04-05T01:27:06;-1.10;99.90
12911;DHT22;6523;49.758;6.120;2023-04-05T01:30:04;-1.10;99.90
12911;DHT22;6523;49.758;6.120;2023-04-05T01:37:44;-0.80;99.90
12911;DHT22;6523;49.758;6.120;2023-04-05T01:40:13;-0.70;99.90
12911;DHT22;6523;49.758;6.120;2023-04-05T01:42:39;-0.80;99.90
12911;DHT22;6523;49.758;6.120;2023-04-05T01:45:05;-0.80;99.90
12911;DHT22;6523;49.758;6.120;2023-04-05T01:47:31;-0.80;99.90
12911;DHT22;6523;49.758;6.120;2023-04-05T01:49:56;-1.00;99.90
12911;DHT22;6523;49.758;6.120;2023-04-05T01:52:22;-1.40;99.90
12911;DHT22;6523;49.758;6.120;2023-04-05T01:54:47;-1.40;99.90
12911;DHT22;6523;49.758;6.120;2023-04-05T01:57:13;-1.40;99.90
12911;DHT22;6523;49.758;6.120;2023-04-05T01:59:38;-1.50;99.90
12911;DHT22;6523;49.758;6.120;2023-04-05T02:02:04;-1.30;99.90
12911;DHT22;6523;49.758;6.120;2023-04-05T02:04:30;-1.40;99.90
12911;DHT22;6523;49.758;6.120;2023-04-05T02:06:55;-1.60;99.90
12911;DHT22;6523;49.758;6.120;2023-04-05T02:09:21;-1.70;99.90
12911;DHT22;6523;49.758;6.120;2023-04-05T02:11:46;-1.60;99.90
12911;DHT22;6523;49.758;6.120;2023-04-05T02:14:12;-1.80;99.90
12911;DHT22;6523;49.758;6.120;2023-04-05T02:16:37;-1.80;99.90
12911;DHT22;6523;49.758;6.120;2023-04-05T02:19:03;-1.60;99.90
12911;DHT22;6523;49.758;6.120;2023-04-05T02:21:30;-1.70;99.90
12911;DHT22;6523;49.758;6.120;2023-04-05T02:23:56;-1.70;99.90
12911;DHT22;6523;49.758;6.120;2023-04-05T02:26:22;-1.90;99.90
12911;DHT22;6523;49.758;6.120;2023-04-05T02:28:47;-1.80;99.90
12911;DHT22;6523;49.758;6.120;2023-04-05T02:31:13;-1.80;99.90
12911;DHT22;6523;49.758;6.120;2023-04-05T02:33:39;-1.70;99.90
12911;DHT22;6523;49.758;6.120;2023-04-05T02:36:09;-1.80;99.90
12911;DHT22;6523;49.758;6.120;2023-04-05T02:38:35;-2.00;99.90
12911;DHT22;6523;49.758;6.120;2023-04-05T02:41:01;-2.10;99.90
12911;DHT22;6523;49.758;6.120;2023-04-05T02:43:27;-2.10;99.90
12911;DHT22;6523;49.758;6.120;2023-04-05T02:45:53;-2.20;99.90
12911;DHT22;6523;49.758;6.120;2023-04-05T02:48:18;-2.20;99.90
12911;DHT22;6523;49.758;6.120;2023-04-05T02:50:48;-2.30;99.90
12911;DHT22;6523;49.758;6.120;2023-04-05T02:53:15;-2.20;99.90
12911;DHT22;6523;49.758;6.120;2023-04-05T02:55:40;-2.00;99.90
12911;DHT22;6523;49.758;6.120;2023-04-05T02:58:06;-2.00;99.90
12911;DHT22;6523;49.758;6.120;2023-04-05T03:00:32;-1.90;99.90
12911;DHT22;6523;49.758;6.120;2023-04-05T03:02:58;-1.70;99.90
12911;DHT22;6523;49.758;6.120;2023-04-05T03:05:24;-1.70;99.90
12911;DHT22;6523;49.758;6.120;2023-04-05T03:07:50;-1.70;99.90
12911;DHT22;6523;49.758;6.120;2023-04-05T03:10:17;-1.60;99.90
12911;DHT22;6523;49.758;6.120;2023-04-05T03:12:46;-1.70;99.90
12911;DHT22;6523;49.758;6.120;2023-04-05T03:15:11;-1.80;99.90
12911;DHT22;6523;49.758;6.120;2023-04-05T03:17:37;-2.20;99.90
12911;DHT22;6523;49.758;6.120;2023-04-05T03:20:03;-2.70;99.90
12911;DHT22;6523;49.758;6.120;2023-04-05T03:22:33;-2.80;99.90
12911;DHT22;6523;49.758;6.120;2023-04-05T03:24:58;-2.60;99.90
12911;DHT22;6523;49.758;6.120;2023-04-05T03:27:25;-2.60;99.90
12911;DHT22;6523;49.758;6.120;2023-04-05T03:29:50;-2.30;99.90
12911;DHT22;6523;49.758;6.120;2023-04-05T03:32:16;-2.10;99.90
12911;DHT22;6523;49.758;6.120;2023-04-05T03:34:41;-2.00;99.90
12911;DHT22;6523;49.758;6.120;2023-04-05T03:37:08;-2.10;99.90
12911;DHT22;6523;49.758;6.120;2023-04-05T03:39:34;-2.40;99.90
12911;DHT22;6523;49.758;6.120;2023-04-05T03:41:59;-2.30;99.90
12911;DHT22;6523;49.758;6.120;2023-04-05T03:44:25;-2.40;99.90
12911;DHT22;6523;49.758;6.120;2023-04-05T03:46:51;-2.30;99.90
12911;DHT22;6523;49.758;6.120;2023-04-05T03:49:17;-2.30;99.90
12911;DHT22;6523;49.758;6.120;2023-04-05T03:51:44;-2.40;99.90
12911;DHT22;6523;49.758;6.120;2023-04-05T03:54:10;-2.40;99.90
12911;DHT22;6523;49.758;6.120;2023-04-05T03:56:36;-2.50;99.90
12911;DHT22;6523;49.758;6.120;2023-04-05T03:59:02;-2.60;99.90
12911;DHT22;6523;49.758;6.120;2023-04-05T04:01:28;-2.80;99.90
12911;DHT22;6523;49.758;6.120;2023-04-05T04:03:53;-2.80;99.90
12911;DHT22;6523;49.758;6.120;2023-04-05T04:06:19;-2.60;99.90
12911;DHT22;6523;49.758;6.120;2023-04-05T04:08:45;-2.50;99.90
12911;DHT22;6523;49.758;6.120;2023-04-05T04:11:11;-2.50;99.90
12911;DHT22;6523;49.758;6.120;2023-04-05T04:13:36;-2.30;99.90
12911;DHT22;6523;49.758;6.120;2023-04-05T04:16:02;-2.30;99.90
12911;DHT22;6523;49.758;6.120;2023-04-05T04:18:28;-2.40;99.90
12911;DHT22;6523;49.758;6.120;2023-04-05T04:20:53;-2.40;99.90
12911;DHT22;6523;49.758;6.120;2023-04-05T04:23:19;-2.60;99.90
12911;DHT22;6523;49.758;6.120;2023-04-05T04:25:44;-2.70;99.90
12911;DHT22;6523;49.758;6.120;2023-04-05T04:28:11;-2.80;99.90
12911;DHT22;6523;49.758;6.120;2023-04-05T04:30:37;-2.50;99.90
12911;DHT22;6523;49.758;6.120;2023-04-05T04:33:03;-2.40;99.90
12911;DHT22;6523;49.758;6.120;2023-04-05T04:35:32;-2.30;99.90
12911;DHT22;6523;49.758;6.120;2023-04-05T04:38:06;-2.30;99.90
12911;DHT22;6523;49.758;6.120;2023-04-05T04:40:37;-2.30;99.90
12911;DHT22;6523;49.758;6.120;2023-04-05T04:43:12;-2.50;99.90
12911;DHT22;6523;49.758;6.120;2023-04-05T04:45:39;-2.80;99.90
12911;DHT22;6523;49.758;6.120;2023-04-05T04:48:05;-3.00;99.90
12911;DHT22;6523;49.758;6.120;2023-04-05T04:50:33;-3.20;99.90
12911;DHT22;6523;49.758;6.120;2023-04-05T04:52:59;-3.00;99.90
12911;DHT22;6523;49.758;6.120;2023-04-05T04:55:25;-2.80;99.90
12911;DHT22;6523;49.758;6.120;2023-04-05T04:57:52;-3.00;99.90
12911;DHT22;6523;49.758;6.120;2023-04-05T05:00:18;-2.80;99.90
12911;DHT22;6523;49.758;6.120;2023-04-05T05:02:45;-2.80;99.90
12911;DHT22;6523;49.758;6.120;2023-04-05T05:05:12;-2.70;99.90
12911;DHT22;6523;49.758;6.120;2023-04-05T05:07:39;-2.70;99.90
12911;DHT22;6523;49.758;6.120;2023-04-05T05:10:11;-2.90;99.90
12911;DHT22;6523;49.758;6.120;2023-04-05T05:12:37;-3.10;99.90
12911;DHT22;6523;49.758;6.120;2023-04-05T05:15:03;-3.10;99.90
12911;DHT22;6523;49.758;6.120;2023-04-05T05:17:29;-3.00;99.90
12911;DHT22;6523;49.758;6.120;2023-04-05T05:19:56;-2.90;99.90
12911;DHT22;6523;49.758;6.120;2023-04-05T05:22:24;-2.90;99.90
12911;DHT22;6523;49.758;6.120;2023-04-05T05:24:50;-2.90;99.90
12911;DHT22;6523;49.758;6.120;2023-04-05T05:27:16;-2.80;99.90
12911;DHT22;6523;49.758;6.120;2023-04-05T05:29:41;-2.60;99.90
12911;DHT22;6523;49.758;6.120;2023-04-05T05:32:08;-2.60;99.90
12911;DHT22;6523;49.758;6.120;2023-04-05T05:34:33;-2.70;99.90
12911;DHT22;6523;49.758;6.120;2023-04-05T05:36:59;-2.80;99.90
12911;DHT22;6523;49.758;6.120;2023-04-05T05:39:25;-2.80;99.90
12911;DHT22;6523;49.758;6.120;2023-04-05T05:41:51;-2.90;99.90
12911;DHT22;6523;49.758;6.120;2023-04-05T05:44:17;-2.80;99.90
12911;DHT22;6523;49.758;6.120;2023-04-05T05:46:42;-2.80;99.90
12911;DHT22;6523;49.758;6.120;2023-04-05T05:49:08;-3.10;99.90
12911;DHT22;6523;49.758;6.120;2023-04-05T05:51:33;-3.10;99.90
12911;DHT22;6523;49.758;6.120;2023-04-05T05:54:00;-3.20;99.90
12911;DHT22;6523;49.758;6.120;2023-04-05T05:56:25;-2.90;99.90
12911;DHT22;6523;49.758;6.120;2023-04-05T05:58:51;-2.70;99.90
12911;DHT22;6523;49.758;6.120;2023-04-05T06:01:17;-2.50;99.90
12911;DHT22;6523;49.758;6.120;2023-04-05T06:03:47;-2.70;99.90
12911;DHT22;6523;49.758;6.120;2023-04-05T06:06:12;-2.80;99.90
12911;DHT22;6523;49.758;6.120;2023-04-05T06:08:38;-2.80;99.90
12911;DHT22;6523;49.758;6.120;2023-04-05T06:11:04;-2.80;99.90
12911;DHT22;6523;49.758;6.120;2023-04-05T06:13:29;-2.60;99.90
12911;DHT22;6523;49.758;6.120;2023-04-05T06:15:55;-2.50;99.90
12911;DHT22;6523;49.758;6.120;2023-04-05T06:18:20;-2.50;99.90
12911;DHT22;6523;49.758;6.120;2023-04-05T06:20:46;-2.30;99.90
12911;DHT22;6523;49.758;6.120;2023-04-05T06:23:12;-2.30;99.90
12911;DHT22;6523;49.758;6.120;2023-04-05T06:25:38;-2.20;99.90
12911;DHT22;6523;49.758;6.120;2023-04-05T06:28:05;-2.10;99.90
12911;DHT22;6523;49.758;6.120;2023-04-05T06:30:31;-2.00;99.90
12911;DHT22;6523;49.758;6.120;2023-04-05T06:32:58;-2.00;99.90
12911;DHT22;6523;49.758;6.120;2023-04-05T06:35:23;-2.00;99.90
12911;DHT22;6523;49.758;6.120;2023-04-05T06:37:50;-2.00;99.90
12911;DHT22;6523;49.758;6.120;2023-04-05T06:40:15;-2.00;99.90
12911;DHT22;6523;49.758;6.120;2023-04-05T06:42:41;-1.90;99.90
12911;DHT22;6523;49.758;6.120;2023-04-05T06:45:07;-1.80;99.90
12911;DHT22;6523;49.758;6.120;2023-04-05T06:47:37;-1.60;99.90
12911;DHT22;6523;49.758;6.120;2023-04-05T06:50:05;-1.50;99.90
12911;DHT22;6523;49.758;6.120;2023-04-05T06:52:31;-1.40;99.90
12911;DHT22;6523;49.758;6.120;2023-04-05T06:54:57;-1.20;99.90
12911;DHT22;6523;49.758;6.120;2023-04-05T06:57:23;-1.10;99.90
12911;DHT22;6523;49.758;6.120;2023-04-05T06:59:50;-1.00;99.90
12911;DHT22;6523;49.758;6.120;2023-04-05T07:02:17;-0.80;99.90
12911;DHT22;6523;49.758;6.120;2023-04-05T07:04:42;-0.80;99.90
12911;DHT22;6523;49.758;6.120;2023-04-05T07:07:08;-0.80;99.90
12911;DHT22;6523;49.758;6.120;2023-04-05T07:09:34;-0.70;99.90
12911;DHT22;6523;49.758;6.120;2023-04-05T07:12:02;-0.70;99.90
12911;DHT22;6523;49.758;6.120;2023-04-05T07:14:29;-0.50;99.90
12911;DHT22;6523;49.758;6.120;2023-04-05T07:16:55;-0.40;99.90
12911;DHT22;6523;49.758;6.120;2023-04-05T07:19:21;-0.30;99.90
12911;DHT22;6523;49.758;6.120;2023-04-05T07:21:47;-0.30;99.90
12911;DHT22;6523;49.758;6.120;2023-04-05T07:24:14;-0.30;99.90
12911;DHT22;6523;49.758;6.120;2023-04-05T07:26:41;-0.20;99.90
12911;DHT22;6523;49.758;6.120;2023-04-05T07:29:08;-0.10;99.90
12911;DHT22;6523;49.758;6.120;2023-04-05T07:31:34;0.10;99.90
12911;DHT22;6523;49.758;6.120;2023-04-05T07:34:00;0.20;99.90
12911;DHT22;6523;49.758;6.120;2023-04-05T07:36:26;0.20;99.90
12911;DHT22;6523;49.758;6.120;2023-04-05T07:38:56;0.30;99.90
12911;DHT22;6523;49.758;6.120;2023-04-05T07:41:23;0.40;99.90
12911;DHT22;6523;49.758;6.120;2023-04-05T07:43:49;0.50;99.90
12911;DHT22;6523;49.758;6.120;2023-04-05T07:46:15;0.60;99.90
12911;DHT22;6523;49.758;6.120;2023-04-05T07:48:40;0.70;99.90
12911;DHT22;6523;49.758;6.120;2023-04-05T07:51:07;0.80;99.90
12911;DHT22;6523;49.758;6.120;2023-04-05T07:53:34;1.00;99.90
12911;DHT22;6523;49.758;6.120;2023-04-05T07:56:07;1.10;99.90
12911;DHT22;6523;49.758;6.120;2023-04-05T07:58:34;1.20;99.90
12911;DHT22;6523;49.758;6.120;2023-04-05T08:01:01;1.40;99.90
12911;DHT22;6523;49.758;6.120;2023-04-05T08:03:28;1.50;99.90
12911;DHT22;6523;49.758;6.120;2023-04-05T08:05:54;1.70;99.90
12911;DHT22;6523;49.758;6.120;2023-04-05T08:08:20;1.90;99.90
12911;DHT22;6523;49.758;6.120;2023-04-05T08:10:46;2.00;99.90
12911;DHT22;6523;49.758;6.120;2023-04-05T08:13:11;2.20;99.90
12911;DHT22;6523;49.758;6.120;2023-04-05T08:15:37;2.30;99.90
12911;DHT22;6523;49.758;6.120;2023-04-05T08:18:02;2.50;99.90
12911;DHT22;6523;49.758;6.120;2023-04-05T08:20:28;2.50;99.90
12911;DHT22;6523;49.758;6.120;2023-04-05T08:22:54;2.50;99.90
12911;DHT22;6523;49.758;6.120;2023-04-05T08:25:19;2.80;99.90
12911;DHT22;6523;49.758;6.120;2023-04-05T08:27:45;2.90;99.90
12911;DHT22;6523;49.758;6.120;2023-04-05T08:30:11;3.20;99.90
12911;DHT22;6523;49.758;6.120;2023-04-05T08:32:37;3.40;99.90
12911;DHT22;6523;49.758;6.120;2023-04-05T08:35:03;3.60;99.90
12911;DHT22;6523;49.758;6.120;2023-04-05T08:37:33;3.70;99.90
12911;DHT22;6523;49.758;6.120;2023-04-05T08:39:59;3.90;99.90
12911;DHT22;6523;49.758;6.120;2023-04-05T08:42:36;4.40;99.90
12911;DHT22;6523;49.758;6.120;2023-04-05T08:45:08;4.50;99.90
12911;DHT22;6523;49.758;6.120;2023-04-05T08:47:35;4.80;99.90
12911;DHT22;6523;49.758;6.120;2023-04-05T08:50:02;5.40;99.90
12911;DHT22;6523;49.758;6.120;2023-04-05T08:52:30;5.60;99.90
12911;DHT22;6523;49.758;6.120;2023-04-05T08:54:56;5.70;99.90
12911;DHT22;6523;49.758;6.120;2023-04-05T08:57:24;5.90;99.90
12911;DHT22;6523;49.758;6.120;2023-04-05T08:59:52;5.90;99.90
12911;DHT22;6523;49.758;6.120;2023-04-05T09:02:21;6.20;99.90
12911;DHT22;6523;49.758;6.120;2023-04-05T09:04:47;6.20;99.90
12911;DHT22;6523;49.758;6.120;2023-04-05T09:07:14;6.40;99.90
12911;DHT22;6523;49.758;6.120;2023-04-05T09:09:43;7.10;99.90
12911;DHT22;6523;49.758;6.120;2023-04-05T09:12:10;7.20;99.90
12911;DHT22;6523;49.758;6.120;2023-04-05T09:14:37;7.50;99.90
12911;DHT22;6523;49.758;6.120;2023-04-05T09:17:03;8.10;99.90
12911;DHT22;6523;49.758;6.120;2023-04-05T09:19:29;8.10;99.90
12911;DHT22;6523;49.758;6.120;2023-04-05T09:22:02;8.30;99.90
12911;DHT22;6523;49.758;6.120;2023-04-05T09:24:42;8.70;99.90
12911;DHT22;6523;49.758;6.120;2023-04-05T09:27:16;9.20;99.90
12911;DHT22;6523;49.758;6.120;2023-04-05T09:29:47;9.30;99.90
12911;DHT22;6523;49.758;6.120;2023-04-05T09:32:14;9.10;99.90
12911;DHT22;6523;49.758;6.120;2023-04-05T09:34:41;9.50;99.90
12911;DHT22;6523;49.758;6.120;2023-04-05T09:37:18;8.70;99.90
12911;DHT22;6523;49.758;6.120;2023-04-05T09:39:45;9.20;99.90
12911;DHT22;6523;49.758;6.120;2023-04-05T09:42:15;9.10;99.90
12911;DHT22;6523;49.758;6.120;2023-04-05T09:44:58;8.60;99.90
12911;DHT22;6523;49.758;6.120;2023-04-05T09:47:31;9.60;99.90
12911;DHT22;6523;49.758;6.120;2023-04-05T09:49:59;10.00;99.90
12911;DHT22;6523;49.758;6.120;2023-04-05T09:52:30;10.00;99.90
12911;DHT22;6523;49.758;6.120;2023-04-05T09:55:02;9.80;99.90
12911;DHT22;6523;49.758;6.120;2023-04-05T09:57:32;9.40;99.90
12911;DHT22;6523;49.758;6.120;2023-04-05T09:59:57;9.50;99.90
12911;DHT22;6523;49.758;6.120;2023-04-05T10:02:24;9.60;99.90
12911;DHT22;6523;49.758;6.120;2023-04-05T10:04:50;9.80;99.90
12911;DHT22;6523;49.758;6.120;2023-04-05T10:07:18;10.10;99.90
12911;DHT22;6523;49.758;6.120;2023-04-05T10:09:45;10.00;99.90
12911;DHT22;6523;49.758;6.120;2023-04-05T10:12:25;11.00;99.90
12911;DHT22;6523;49.758;6.120;2023-04-05T10:14:52;11.00;99.90
12911;DHT22;6523;49.758;6.120;2023-04-05T10:18:03;10.40;99.90
12911;DHT22;6523;49.758;6.120;2023-04-05T10:23:06;11.90;99.90
12911;DHT22;6523;49.758;6.120;2023-04-05T10:28:04;11.50;99.90
12911;DHT22;6523;49.758;6.120;2023-04-05T10:30:45;11.80;99.90
12911;DHT22;6523;49.758;6.120;2023-04-05T10:33:21;12.00;99.90
12911;DHT22;6523;49.758;6.120;2023-04-05T10:38:28;12.00;99.90
12911;DHT22;6523;49.758;6.120;2023-04-05T10:40:59;12.60;99.90
12911;DHT22;6523;49.758;6.120;2023-04-05T10:43:28;12.20;99.90
12911;DHT22;6523;49.758;6.120;2023-04-05T10:45:56;11.50;99.90
12911;DHT22;6523;49.758;6.120;2023-04-05T10:48:47;11.40;99.90
12911;DHT22;6523;49.758;6.120;2023-04-05T10:51:14;10.70;99.90
12911;DHT22;6523;49.758;6.120;2023-04-05T10:53:40;10.40;99.90
12911;DHT22;6523;49.758;6.120;2023-04-05T10:56:07;11.20;99.90
12911;DHT22;6523;49.758;6.120;2023-04-05T10:58:34;12.60;99.90
12911;DHT22;6523;49.758;6.120;2023-04-05T11:01:00;13.40;99.90
12911;DHT22;6523;49.758;6.120;2023-04-05T11:06:33;13.40;99.90
12911;DHT22;6523;49.758;6.120;2023-04-05T11:11:25;13.60;99.90
12911;DHT22;6523;49.758;6.120;2023-04-05T11:13:55;13.80;99.90
12911;DHT22;6523;49.758;6.120;2023-04-05T11:16:23;14.10;99.90
12911;DHT22;6523;49.758;6.120;2023-04-05T11:19:02;14.00;99.90
12911;DHT22;6523;49.758;6.120;2023-04-05T11:21:28;12.40;99.90
12911;DHT22;6523;49.758;6.120;2023-04-05T11:24:09;13.20;99.90
12911;DHT22;6523;49.758;6.120;2023-04-05T11:29:05;14.50;99.90
12911;DHT22;6523;49.758;6.120;2023-04-05T11:31:31;14.50;99.90
12911;DHT22;6523;49.758;6.120;2023-04-05T11:34:07;13.90;99.90
12911;DHT22;6523;49.758;6.120;2023-04-05T11:36:42;12.50;99.90
12911;DHT22;6523;49.758;6.120;2023-04-05T11:42:03;12.90;99.90
12911;DHT22;6523;49.758;6.120;2023-04-05T11:44:45;12.90;99.90
12911;DHT22;6523;49.758;6.120;2023-04-05T11:47:12;12.70;99.90
12911;DHT22;6523;49.758;6.120;2023-04-05T11:49:38;12.10;99.90
12911;DHT22;6523;49.758;6.120;2023-04-05T11:52:15;13.40;99.90
12911;DHT22;6523;49.758;6.120;2023-04-05T11:54:41;13.00;99.90
12911;DHT22;6523;49.758;6.120;2023-04-05T11:57:20;12.30;99.90
12911;DHT22;6523;49.758;6.120;2023-04-05T11:59:52;12.90;99.90
12911;DHT22;6523;49.758;6.120;2023-04-05T12:02:18;13.30;99.90
12911;DHT22;6523;49.758;6.120;2023-04-05T12:04:43;12.60;99.90
12911;DHT22;6523;49.758;6.120;2023-04-05T12:07:19;12.90;99.90
12911;DHT22;6523;49.758;6.120;2023-04-05T12:10:01;14.20;99.90
12911;DHT22;6523;49.758;6.120;2023-04-05T12:12:32;14.40;99.90
12911;DHT22;6523;49.758;6.120;2023-04-05T12:14:59;12.90;99.90
12911;DHT22;6523;49.758;6.120;2023-04-05T12:20:12;15.00;99.90
12911;DHT22;6523;49.758;6.120;2023-04-05T12:22:39;15.30;99.90
12911;DHT22;6523;49.758;6.120;2023-04-05T12:25:06;15.00;99.90
12911;DHT22;6523;49.758;6.120;2023-04-05T12:27:32;14.80;99.90
12911;DHT22;6523;49.758;6.120;2023-04-05T12:30:09;15.50;99.90
12911;DHT22;6523;49.758;6.120;2023-04-05T12:32:54;15.60;99.90
12911;DHT22;6523;49.758;6.120;2023-04-05T12:35:24;15.80;99.90
12911;DHT22;6523;49.758;6.120;2023-04-05T12:37:57;16.10;99.90
12911;DHT22;6523;49.758;6.120;2023-04-05T12:40:24;15.90;99.90
12911;DHT22;6523;49.758;6.120;2023-04-05T12:42:50;16.30;99.90
12911;DHT22;6523;49.758;6.120;2023-04-05T12:45:16;16.40;99.90
12911;DHT22;6523;49.758;6.120;2023-04-05T12:47:56;16.40;99.90
12911;DHT22;6523;49.758;6.120;2023-04-05T12:53:00;16.10;99.90
12911;DHT22;6523;49.758;6.120;2023-04-05T12:55:27;16.00;99.90
12911;DHT22;6523;49.758;6.120;2023-04-05T12:57:55;15.70;99.90
12911;DHT22;6523;49.758;6.120;2023-04-05T13:00:24;16.40;99.90
12911;DHT22;6523;49.758;6.120;2023-04-05T13:02:51;16.50;99.90
12911;DHT22;6523;49.758;6.120;2023-04-05T13:05:19;15.60;99.90
12911;DHT22;6523;49.758;6.120;2023-04-05T13:07:45;16.40;99.90
12911;DHT22;6523;49.758;6.120;2023-04-05T13:10:11;16.60;99.90
12911;DHT22;6523;49.758;6.120;2023-04-05T13:12:36;16.10;99.90
12911;DHT22;6523;49.758;6.120;2023-04-05T13:15:02;16.20;99.90
12911;DHT22;6523;49.758;6.120;2023-04-05T13:17:28;16.40;99.90
12911;DHT22;6523;49.758;6.120;2023-04-05T13:19:53;16.70;99.90
12911;DHT22;6523;49.758;6.120;2023-04-05T13:22:19;15.90;99.90
12911;DHT22;6523;49.758;6.120;2023-04-05T13:24:45;16.40;99.90
12911;DHT22;6523;49.758;6.120;2023-04-05T13:27:11;17.30;99.90
12911;DHT22;6523;49.758;6.120;2023-04-05T13:29:36;16.60;99.90
12911;DHT22;6523;49.758;6.120;2023-04-05T13:32:02;17.00;99.90
12911;DHT22;6523;49.758;6.120;2023-04-05T13:34:27;16.40;99.90
12911;DHT22;6523;49.758;6.120;2023-04-05T13:36:53;15.30;99.90
12911;DHT22;6523;49.758;6.120;2023-04-05T13:39:18;15.80;99.90
12911;DHT22;6523;49.758;6.120;2023-04-05T13:41:44;16.90;99.90
12911;DHT22;6523;49.758;6.120;2023-04-05T13:44:10;16.50;99.90
12911;DHT22;6523;49.758;6.120;2023-04-05T13:46:35;16.20;99.90
12911;DHT22;6523;49.758;6.120;2023-04-05T13:49:01;15.00;99.90
12911;DHT22;6523;49.758;6.120;2023-04-05T13:51:26;13.90;99.90
12911;DHT22;6523;49.758;6.120;2023-04-05T13:53:56;14.00;99.90
12911;DHT22;6523;49.758;6.120;2023-04-05T13:56:21;15.90;99.90
12911;DHT22;6523;49.758;6.120;2023-04-05T13:58:47;16.70;99.90
12911;DHT22;6523;49.758;6.120;2023-04-05T14:01:13;16.20;99.90
12911;DHT22;6523;49.758;6.120;2023-04-05T14:03:38;16.30;99.90
12911;DHT22;6523;49.758;6.120;2023-04-05T14:06:04;16.90;99.90
12911;DHT22;6523;49.758;6.120;2023-04-05T14:08:29;17.10;99.90
12911;DHT22;6523;49.758;6.120;2023-04-05T14:10:55;17.10;99.90
12911;DHT22;6523;49.758;6.120;2023-04-05T14:13:20;16.40;99.90
12911;DHT22;6523;49.758;6.120;2023-04-05T14:15:46;17.10;99.90
12911;DHT22;6523;49.758;6.120;2023-04-05T14:18:12;17.40;99.90
12911;DHT22;6523;49.758;6.120;2023-04-05T14:20:37;17.40;99.90
12911;DHT22;6523;49.758;6.120;2023-04-05T14:23:03;17.20;99.90
12911;DHT22;6523;49.758;6.120;2023-04-05T14:25:29;17.70;99.90
12911;DHT22;6523;49.758;6.120;2023-04-05T14:27:55;16.90;99.90
12911;DHT22;6523;49.758;6.120;2023-04-05T14:30:20;17.10;99.90
12911;DHT22;6523;49.758;6.120;2023-04-05T14:32:46;17.10;99.90
12911;DHT22;6523;49.758;6.120;2023-04-05T14:35:11;17.40;99.90
12911;DHT22;6523;49.758;6.120;2023-04-05T14:37:37;17.80;99.90
12911;DHT22;6523;49.758;6.120;2023-04-05T14:40:02;17.70;99.90
12911;DHT22;6523;49.758;6.120;2023-04-05T14:42:28;17.20;99.90
12911;DHT22;6523;49.758;6.120;2023-04-05T14:44:54;16.90;99.90
12911;DHT22;6523;49.758;6.120;2023-04-05T14:47:20;17.10;99.90
12911;DHT22;6523;49.758;6.120;2023-04-05T14:49:45;16.70;99.90
12911;DHT22;6523;49.758;6.120;2023-04-05T14:52:11;17.00;99.90
12911;DHT22;6523;49.758;6.120;2023-04-05T14:54:37;17.20;99.90
12911;DHT22;6523;49.758;6.120;2023-04-05T14:57:02;17.30;99.90
12911;DHT22;6523;49.758;6.120;2023-04-05T14:59:28;16.70;99.90
12911;DHT22;6523;49.758;6.120;2023-04-05T15:01:55;17.30;99.90
12911;DHT22;6523;49.758;6.120;2023-04-05T15:04:20;16.60;99.90
12911;DHT22;6523;49.758;6.120;2023-04-05T15:06:46;15.90;99.90
12911;DHT22;6523;49.758;6.120;2023-04-05T15:09:12;15.90;99.90
12911;DHT22;6523;49.758;6.120;2023-04-05T15:11:37;15.80;99.90
12911;DHT22;6523;49.758;6.120;2023-04-05T15:14:04;16.10;99.90
12911;DHT22;6523;49.758;6.120;2023-04-05T15:16:30;15.80;99.90
12911;DHT22;6523;49.758;6.120;2023-04-05T15:18:56;15.00;99.90
12911;DHT22;6523;49.758;6.120;2023-04-05T15:21:23;15.10;99.90
12911;DHT22;6523;49.758;6.120;2023-04-05T15:23:49;14.80;99.90
12911;DHT22;6523;49.758;6.120;2023-04-05T15:26:14;16.00;99.90
12911;DHT22;6523;49.758;6.120;2023-04-05T15:28:40;16.30;99.90
12911;DHT22;6523;49.758;6.120;2023-04-05T15:31:05;17.10;99.90
12911;DHT22;6523;49.758;6.120;2023-04-05T15:33:31;17.60;99.90
12911;DHT22;6523;49.758;6.120;2023-04-05T15:35:56;18.20;99.90
12911;DHT22;6523;49.758;6.120;2023-04-05T15:38:22;16.50;99.90
12911;DHT22;6523;49.758;6.120;2023-04-05T15:40:47;16.60;99.90
12911;DHT22;6523;49.758;6.120;2023-04-05T15:43:17;16.60;99.90
12911;DHT22;6523;49.758;6.120;2023-04-05T15:45:43;16.90;99.90
12911;DHT22;6523;49.758;6.120;2023-04-05T15:48:09;16.90;99.90
12911;DHT22;6523;49.758;6.120;2023-04-05T15:50:35;17.30;99.90
12911;DHT22;6523;49.758;6.120;2023-04-05T15:53:00;17.90;99.90
12911;DHT22;6523;49.758;6.120;2023-04-05T15:55:26;17.20;99.90
12911;DHT22;6523;49.758;6.120;2023-04-05T15:57:51;16.70;99.90
12911;DHT22;6523;49.758;6.120;2023-04-05T16:00:20;16.70;99.90
12911;DHT22;6523;49.758;6.120;2023-04-05T16:02:46;16.70;99.90
12911;DHT22;6523;49.758;6.120;2023-04-05T16:05:12;16.50;99.90
12911;DHT22;6523;49.758;6.120;2023-04-05T16:07:37;16.50;99.90
12911;DHT22;6523;49.758;6.120;2023-04-05T16:10:03;15.70;99.90
12911;DHT22;6523;49.758;6.120;2023-04-05T16:12:29;15.30;99.90
12911;DHT22;6523;49.758;6.120;2023-04-05T16:14:55;16.00;99.90
12911;DHT22;6523;49.758;6.120;2023-04-05T16:17:20;16.70;99.90
12911;DHT22;6523;49.758;6.120;2023-04-05T16:19:46;16.50;99.90
12911;DHT22;6523;49.758;6.120;2023-04-05T16:22:12;16.50;99.90
12911;DHT22;6523;49.758;6.120;2023-04-05T16:24:37;15.80;99.90
12911;DHT22;6523;49.758;6.120;2023-04-05T16:27:04;16.00;99.90